Time;durP1;ratioP1;P1;durP2;ratioP2;P2;SDS_P1;SDS_P2;PMS_P1;PMS_P2;Temp;Humidity;BMP_temperature;BMP_pressure;BME280_temperature;BME280_humidity;BME280_pressure;Samples;Min_cycle;Max_cycle;Signal;HPM_P1;HPM_P2
2023/10/18 00:01:16;;;;;;;10.00;5.15;;;6.80;99.90;;;;;;5022969;23;20054;-86
2023/10/18 00:03:43;;;;;;;11.25;4.45;;;6.80;99.90;;;;;;5032372;28;20092;-85
2023/10/18 00:06:21;;;;;;;9.75;4.90;;;6.80;99.90;;;;;;5032535;28;20048;-85
2023/10/18 00:08:47;;;;;;;9.85;4.38;;;6.80;99.90;;;;;;5032600;28;20041;-85
2023/10/18 00:11:16;;;;;;;15.10;5.18;;;6.80;99.90;;;;;;5032659;28;20053;-86
2023/10/18 00:13:50;;;;;;;9.35;4.45;;;6.80;99.90;;;;;;5032753;28;20075;-85
2023/10/18 00:16:16;;;;;;;7.78;4.63;;;6.80;99.90;;;;;;5032443;28;20477;-86
2023/10/18 00:18:43;;;;;;;7.85;4.10;;;6.80;99.90;;;;;;5032739;28;20056;-85
2023/10/18 00:21:08;;;;;;;9.10;4.43;;;6.90;99.90;;;;;;5032655;28;20478;-85
2023/10/18 00:23:34;;;;;;;8.95;4.45;;;6.90;99.90;;;;;;5032140;28;20045;-85
2023/10/18 00:26:04;;;;;;;8.82;5.43;;;6.90;99.90;;;;;;5032547;28;20056;-84
2023/10/18 00:28:31;;;;;;;9.32;4.15;;;6.90;99.90;;;;;;5032490;28;20041;-86
2023/10/18 00:30:58;;;;;;;9.10;4.40;;;6.90;99.90;;;;;;5032582;28;20053;-86
2023/10/18 00:33:23;;;;;;;9.73;4.80;;;6.90;99.90;;;;;;5032400;28;20500;-85
2023/10/18 00:35:52;;;;;;;8.07;4.50;;;6.90;99.90;;;;;;5032247;28;20049;-85
2023/10/18 00:38:18;;;;;;;7.38;4.07;;;6.90;99.90;;;;;;5031918;28;20061;-86
2023/10/18 00:40:50;;;;;;;10.68;4.53;;;6.80;99.90;;;;;;5032347;28;20045;-86
2023/10/18 00:43:22;;;;;;;10.95;4.70;;;6.90;99.90;;;;;;5032214;28;20080;-85
2023/10/18 00:45:53;;;;;;;6.93;4.47;;;6.90;99.90;;;;;;5032514;28;20056;-84
2023/10/18 00:48:29;;;;;;;10.48;4.90;;;6.90;99.90;;;;;;5032130;28;20118;-85
2023/10/18 00:50:57;;;;;;;7.72;4.38;;;6.90;99.90;;;;;;5032024;28;20052;-86
2023/10/18 00:53:25;;;;;;;9.63;4.10;;;6.90;99.90;;;;;;5032062;28;20042;-85
2023/10/18 00:55:59;;;;;;;12.77;5.18;;;6.90;99.90;;;;;;5031888;28;20049;-85
2023/10/18 00:58:29;;;;;;;10.68;5.07;;;6.90;99.90;;;;;;5032579;28;20069;-86
2023/10/18 01:00:56;;;;;;;8.10;4.60;;;6.80;99.90;;;;;;5031971;28;20053;-85
2023/10/18 01:03:32;;;;;;;9.80;5.65;;;6.80;99.90;;;;;;5032139;28;20045;-86
2023/10/18 01:06:03;;;;;;;10.13;5.70;;;6.80;99.90;;;;;;5032255;28;20163;-87
2023/10/18 01:08:30;;;;;;;9.07;4.93;;;6.80;99.90;;;;;;5032362;28;20045;-85
2023/10/18 01:11:06;;;;;;;9.05;5.50;;;6.80;99.90;;;;;;5032007;28;20132;-85
2023/10/18 01:13:36;;;;;;;9.95;5.50;;;6.80;99.90;;;;;;5032352;28;20061;-86
2023/10/18 01:16:29;;;;;;;13.93;6.20;;;6.80;99.90;;;;;;5032098;28;20055;-85
2023/10/18 01:18:54;;;;;;;14.20;6.53;;;6.80;99.90;;;;;;5031260;28;20050;-86
2023/10/18 01:21:28;;;;;;;10.43;5.82;;;6.70;99.90;;;;;;5035659;28;20053;-86
2023/10/18 01:23:56;;;;;;;10.73;6.05;;;6.70;99.90;;;;;;5035872;28;20121;-86
2023/10/18 01:26:24;;;;;;;10.85;5.32;;;6.80;99.90;;;;;;5035514;28;20071;-86
2023/10/18 01:28:53;;;;;;;11.48;6.60;;;6.70;99.90;;;;;;5035462;28;20056;-87
2023/10/18 01:31:19;;;;;;;9.35;5.80;;;6.70;99.90;;;;;;5035671;28;20465;-86
2023/10/18 01:33:50;;;;;;;11.73;6.40;;;6.70;99.90;;;;;;5035517;28;20034;-86
2023/10/18 01:36:30;;;;;;;11.10;6.90;;;6.70;99.90;;;;;;5035536;28;20481;-86
2023/10/18 01:38:56;;;;;;;13.48;7.82;;;6.70;99.90;;;;;;5035555;28;20144;-86
2023/10/18 01:41:29;;;;;;;23.42;8.13;;;6.60;99.90;;;;;;5035539;28;20553;-86
2023/10/18 01:44:05;;;;;;;14.02;7.60;;;6.60;99.90;;;;;;5036607;28;20090;-86
2023/10/18 01:46:33;;;;;;;15.77;7.78;;;6.60;99.90;;;;;;5035150;28;20041;-86
2023/10/18 01:49:00;;;;;;;17.00;8.23;;;6.60;99.90;;;;;;5035586;28;20049;-86
2023/10/18 01:51:27;;;;;;;15.88;8.50;;;6.60;99.90;;;;;;5035190;28;20049;-86
2023/10/18 01:53:55;;;;;;;18.45;8.30;;;6.60;99.90;;;;;;5036286;28;20104;-84
2023/10/18 01:56:21;;;;;;;16.45;8.80;;;6.60;99.90;;;;;;5035103;28;20045;-86
2023/10/18 01:58:48;;;;;;;15.32;8.68;;;6.70;99.90;;;;;;5034992;28;20103;-86
2023/10/18 02:01:16;;;;;;;17.83;9.48;;;6.60;99.90;;;;;;5034435;28;20466;-86
2023/10/18 02:03:49;;;;;;;19.65;9.68;;;6.60;99.90;;;;;;5034704;28;20049;-85
2023/10/18 02:06:16;;;;;;;18.17;10.52;;;6.60;99.90;;;;;;5034979;28;20145;-85
2023/10/18 02:08:41;;;;;;;21.15;10.55;;;6.60;99.90;;;;;;5035026;28;20047;-85
2023/10/18 02:11:09;;;;;;;20.92;11.23;;;6.60;99.90;;;;;;5035057;28;20448;-85
2023/10/18 02:13:39;;;;;;;23.10;11.32;;;6.60;99.90;;;;;;5035061;28;20474;-85
2023/10/18 02:16:14;;;;;;;21.23;10.68;;;6.60;99.90;;;;;;5036540;28;20041;-86
2023/10/18 02:18:40;;;;;;;17.10;10.77;;;6.60;99.90;;;;;;5034606;28;20057;-85
2023/10/18 02:21:05;;;;;;;21.52;10.35;;;6.70;99.90;;;;;;5034429;28;20046;-86
2023/10/18 02:23:34;;;;;;;24.52;10.50;;;6.60;99.90;;;;;;5034471;28;20049;-85
2023/10/18 02:28:50;;;;;;;20.15;11.57;;;6.70;99.90;;;;;;5014544;28;20490;-86
2023/10/18 02:31:21;;;;;;;21.88;11.18;;;6.70;99.90;;;;;;5013297;28;20073;-85
2023/10/18 02:33:48;;;;;;;24.40;12.65;;;6.60;99.90;;;;;;5014719;28;20466;-85
2023/10/18 02:36:21;;;;;;;20.60;11.13;;;6.60;99.90;;;;;;5014747;28;20047;-86
2023/10/18 02:38:49;;;;;;;24.30;11.93;;;6.60;99.90;;;;;;5014848;28;20521;-85
2023/10/18 02:41:15;;;;;;;23.17;13.05;;;6.60;99.90;;;;;;5014273;28;20448;-85
2023/10/18 02:43:48;;;;;;;21.10;12.75;;;6.50;99.90;;;;;;5014520;28;20050;-86
2023/10/18 02:46:20;;;;;;;21.67;11.98;;;6.60;99.90;;;;;;5014597;28;20046;-85
2023/10/18 02:48:49;;;;;;;19.17;11.40;;;6.50;99.90;;;;;;5014316;28;20049;-85
2023/10/18 02:51:15;;;;;;;23.92;12.30;;;6.50;99.90;;;;;;5014263;28;20509;-85
2023/10/18 02:53:41;;;;;;;19.83;10.90;;;6.50;99.90;;;;;;5013968;28;20046;-85
2023/10/18 02:56:09;;;;;;;16.05;9.20;;;6.40;99.90;;;;;;5014243;28;20053;-85
2023/10/18 02:58:37;;;;;;;22.08;10.55;;;6.40;99.90;;;;;;5014138;28;20053;-85
2023/10/18 03:01:05;;;;;;;21.88;10.85;;;6.50;99.90;;;;;;5013754;28;20402;-85
2023/10/18 03:03:32;;;;;;;20.92;11.45;;;6.50;99.90;;;;;;5013771;28;20050;-85
2023/10/18 03:06:14;;;;;;;18.85;10.80;;;6.50;99.90;;;;;;5013904;28;20050;-85
2023/10/18 03:08:44;;;;;;;16.95;11.60;;;6.50;99.90;;;;;;5013869;28;20072;-86
2023/10/18 03:11:13;;;;;;;21.50;11.43;;;6.40;99.90;;;;;;5013824;28;20049;-86
2023/10/18 03:13:38;;;;;;;21.27;11.68;;;6.40;99.90;;;;;;5013674;28;20053;-86
2023/10/18 03:18:41;;;;;;;23.80;11.13;;;6.40;99.90;;;;;;5015121;28;20149;-86
2023/10/18 03:21:08;;;;;;;19.58;11.50;;;6.40;99.90;;;;;;5013558;28;20041;-86
2023/10/18 03:23:44;;;;;;;20.25;11.18;;;6.30;99.90;;;;;;5013427;28;20050;-85
2023/10/18 03:26:11;;;;;;;20.73;11.38;;;6.30;99.90;;;;;;5013600;28;20054;-85
2023/10/18 03:28:40;;;;;;;20.30;12.02;;;6.40;99.90;;;;;;5013602;28;20543;-85
2023/10/18 03:31:25;;;;;;;20.95;11.77;;;6.30;99.90;;;;;;5013672;28;20053;-84
2023/10/18 03:33:59;;;;;;;20.83;11.27;;;6.30;99.90;;;;;;5013163;28;20046;-85
2023/10/18 03:36:26;;;;;;;19.30;11.02;;;6.30;99.90;;;;;;5013457;28;20387;-85
2023/10/18 03:39:00;;;;;;;18.65;10.32;;;6.30;99.90;;;;;;5013706;28;20046;-85
2023/10/18 03:41:33;;;;;;;19.08;10.13;;;6.40;99.90;;;;;;5013510;28;20057;-85
2023/10/18 03:44:08;;;;;;;16.67;9.93;;;6.40;99.90;;;;;;5013076;28;20049;-86
2023/10/18 03:46:38;;;;;;;23.05;10.05;;;6.30;99.90;;;;;;5013482;28;20125;-86
2023/10/18 03:49:10;;;;;;;18.83;10.45;;;6.30;99.90;;;;;;5013054;28;20061;-85
2023/10/18 03:51:40;;;;;;;18.98;10.15;;;6.30;99.90;;;;;;5013260;28;20045;-85
2023/10/18 03:54:06;;;;;;;17.85;10.30;;;6.30;99.90;;;;;;5014274;28;20054;-85
2023/10/18 03:56:37;;;;;;;20.25;10.70;;;6.30;99.90;;;;;;5014754;28;20065;-85
2023/10/18 03:59:19;;;;;;;21.33;10.85;;;6.30;99.90;;;;;;5013240;28;20547;-85
2023/10/18 04:02:07;;;;;;;18.48;10.73;;;6.30;99.90;;;;;;5012886;28;20054;-86
2023/10/18 04:04:35;;;;;;;17.30;9.60;;;6.20;99.90;;;;;;5013591;28;20056;-85
2023/10/18 04:07:19;;;;;;;17.08;10.32;;;6.30;99.90;;;;;;5012741;28;20449;-85
2023/10/18 04:10:12;;;;;;;17.65;9.95;;;6.30;99.90;;;;;;5013086;28;20054;-86
2023/10/18 04:12:40;;;;;;;17.98;10.38;;;6.30;99.90;;;;;;5012905;28;20057;-85
2023/10/18 04:15:23;;;;;;;17.05;10.23;;;6.30;99.90;;;;;;5012885;28;20056;-85
2023/10/18 04:20:34;;;;;;;21.20;11.55;;;6.20;99.90;;;;;;5012761;28;20054;-86
2023/10/18 04:23:07;;;;;;;21.00;11.52;;;6.30;99.90;;;;;;5012958;28;20136;-85
2023/10/18 04:25:36;;;;;;;20.45;12.18;;;6.30;99.90;;;;;;5012615;28;20046;-86
2023/10/18 04:28:02;;;;;;;19.98;12.18;;;6.30;99.90;;;;;;5012803;28;20054;-86
2023/10/18 04:30:32;;;;;;;19.67;11.25;;;6.30;99.90;;;;;;5012857;28;20049;-85
2023/10/18 04:33:07;;;;;;;20.83;12.30;;;6.30;99.90;;;;;;5013041;28;20042;-85
2023/10/18 04:35:36;;;;;;;22.48;13.05;;;6.30;99.90;;;;;;5012691;28;20119;-85
2023/10/18 04:38:07;;;;;;;23.95;13.30;;;6.30;99.90;;;;;;5012434;28;20513;-85
2023/10/18 04:40:34;;;;;;;24.50;13.73;;;6.40;99.90;;;;;;5012611;28;20088;-86
2023/10/18 04:43:01;;;;;;;22.67;12.38;;;6.40;99.90;;;;;;5012469;28;20508;-87
2023/10/18 04:45:29;;;;;;;24.10;14.07;;;6.40;99.90;;;;;;5012514;28;20401;-86
2023/10/18 04:48:05;;;;;;;24.88;13.63;;;6.40;99.90;;;;;;5013748;28;20038;-86
2023/10/18 04:50:38;;;;;;;22.02;13.10;;;6.30;99.90;;;;;;5012702;28;20052;-85
2023/10/18 04:53:12;;;;;;;22.57;12.67;;;6.40;99.90;;;;;;5012365;28;20046;-86
2023/10/18 04:55:46;;;;;;;29.08;14.98;;;6.40;99.90;;;;;;4998652;28;20376;-85
2023/10/18 04:58:16;;;;;;;23.73;14.30;;;6.40;99.90;;;;;;5016566;28;20053;-84
2023/10/18 05:00:56;;;;;;;27.05;14.45;;;6.30;99.90;;;;;;5016258;28;20135;-85
2023/10/18 05:03:33;;;;;;;26.45;15.15;;;6.30;99.90;;;;;;4980596;28;20173;-85
2023/10/18 05:05:59;;;;;;;26.52;15.63;;;6.30;99.90;;;;;;4980314;28;20061;-85
2023/10/18 05:08:29;;;;;;;23.23;14.57;;;6.20;99.90;;;;;;4980423;28;20043;-85
2023/10/18 05:11:22;;;;;;;26.23;14.07;;;6.30;99.90;;;;;;4980721;28;20062;-84
2023/10/18 05:13:42;;;;;;;26.52;15.48;;;6.30;99.90;;;;;;4980503;28;20058;-84
2023/10/18 05:16:10;;;;;;;23.67;14.20;;;6.30;99.90;;;;;;4980227;28;20046;-84
2023/10/18 05:18:37;;;;;;;25.80;14.82;;;6.20;99.90;;;;;;4980481;28;20090;-84
2023/10/18 05:21:09;;;;;;;19.90;13.52;;;6.30;99.90;;;;;;4997821;28;20050;-85
2023/10/18 05:23:35;;;;;;;26.27;14.90;;;6.30;99.90;;;;;;4980335;28;20046;-85
2023/10/18 05:28:48;;;;;;;24.50;15.10;;;6.20;99.90;;;;;;4980328;28;20042;-85
2023/10/18 05:34:04;;;;;;;24.00;15.30;;;6.20;99.90;;;;;;4980095;28;20082;-85
2023/10/18 05:36:34;;;;;;;27.83;15.57;;;6.20;99.90;;;;;;4980126;28;20105;-85
2023/10/18 05:41:45;;;;;;;24.83;15.23;;;6.10;99.90;;;;;;4979840;28;20085;-85
2023/10/18 05:44:12;;;;;;;26.27;14.88;;;6.20;99.90;;;;;;4979780;28;20042;-85
2023/10/18 05:46:39;;;;;;;24.15;14.15;;;6.20;99.90;;;;;;4979447;28;20046;-85
2023/10/18 05:49:23;;;;;;;26.25;16.17;;;6.20;99.90;;;;;;4979249;28;20046;-84
2023/10/18 05:51:52;;;;;;;26.83;15.40;;;6.20;99.90;;;;;;4996713;28;20081;-84
2023/10/18 05:54:21;;;;;;;24.90;14.90;;;6.10;99.90;;;;;;4979379;28;20054;-85
2023/10/18 05:56:53;;;;;;;29.95;16.35;;;6.10;99.90;;;;;;4979646;28;20096;-85
2023/10/18 06:01:49;;;;;;;26.33;16.55;;;6.00;99.90;;;;;;4989852;28;20068;-86
2023/10/18 06:04:25;;;;;;;29.55;16.65;;;6.10;99.90;;;;;;5014751;28;20056;-84
2023/10/18 06:06:58;;;;;;;29.10;16.20;;;6.10;99.90;;;;;;5014425;28;20509;-85
2023/10/18 06:09:27;;;;;;;28.35;14.95;;;6.00;99.90;;;;;;5014156;28;20049;-84
2023/10/18 06:11:56;;;;;;;28.60;17.02;;;6.00;99.90;;;;;;5014809;28;20084;-86
2023/10/18 06:14:25;;;;;;;28.25;16.02;;;6.00;99.90;;;;;;5014337;28;20137;-88
2023/10/18 06:16:52;;;;;;;30.27;16.95;;;6.00;99.90;;;;;;5014454;28;20049;-83
2023/10/18 06:19:27;;;;;;;28.42;16.60;;;6.00;99.90;;;;;;5025908;28;20132;-84
2023/10/18 06:21:59;;;;;;;30.55;16.30;;;6.00;99.90;;;;;;5014754;28;20126;-80
2023/10/18 06:24:26;;;;;;;30.85;17.08;;;5.90;99.90;;;;;;5014442;28;20045;-83
2023/10/18 06:26:52;;;;;;;29.52;16.92;;;6.00;99.90;;;;;;5014546;28;20504;-81
2023/10/18 06:29:24;;;;;;;29.85;17.58;;;6.00;99.90;;;;;;5024833;28;20041;-80
2023/10/18 06:31:50;;;;;;;31.75;17.73;;;6.00;99.90;;;;;;5034372;28;20103;-82
2023/10/18 06:34:32;;;;;;;31.55;17.50;;;6.00;99.90;;;;;;5012527;23;20058;-80
2023/10/18 06:37:01;;;;;;;32.45;17.25;;;6.00;99.90;;;;;;4997962;28;20109;-79
2023/10/18 06:39:34;;;;;;;32.88;18.98;;;6.00;99.90;;;;;;4997731;28;20054;-80
2023/10/18 06:41:59;;;;;;;;;;;5.90;99.90;;;;;;4998392;28;20042;-79
2023/10/18 06:44:30;;;;;;;27.40;15.60;;;6.00;99.90;;;;;;4997689;28;19948;-84
2023/10/18 06:46:57;;;;;;;32.33;18.50;;;6.00;99.90;;;;;;5015220;28;20054;-84
2023/10/18 06:49:26;;;;;;;32.55;17.88;;;6.00;99.90;;;;;;4997830;28;20124;-83
2023/10/18 06:51:52;;;;;;;29.85;17.90;;;6.00;99.90;;;;;;4997598;28;20104;-83
2023/10/18 06:54:38;;;;;;;31.50;19.00;;;6.00;99.90;;;;;;4997587;28;20125;-85
2023/10/18 06:57:15;;;;;;;29.50;17.48;;;6.10;99.90;;;;;;4997850;28;20128;-85
2023/10/18 06:59:48;;;;;;;35.92;19.50;;;6.10;99.90;;;;;;4997401;28;20046;-83
2023/10/18 07:02:14;;;;;;;34.55;19.33;;;6.10;99.90;;;;;;4997335;28;20485;-83
2023/10/18 07:07:19;;;;;;;36.00;18.85;;;6.20;99.90;;;;;;5391628;22;20505;-83
2023/10/18 07:10:30;;;;;;;36.58;21.70;;;6.20;99.90;;;;;;5034766;28;20087;-83
2023/10/18 07:13:02;;;;;;;38.15;20.23;;;6.30;99.90;;;;;;5034755;28;20405;-83
2023/10/18 07:15:33;;;;;;;37.97;20.05;;;6.30;99.90;;;;;;5033656;28;20049;-82
2023/10/18 07:18:01;;;;;;;36.60;20.80;;;6.30;99.90;;;;;;5032623;28;20116;-83
2023/10/18 07:20:33;;;;;;;35.28;20.48;;;6.30;99.90;;;;;;5033748;28;20060;-83
2023/10/18 07:23:01;;;;;;;35.58;19.27;;;6.40;99.90;;;;;;5033280;28;20477;-83
2023/10/18 07:25:27;;;;;;;35.05;19.83;;;6.40;99.90;;;;;;5034487;28;20050;-84
2023/10/18 07:27:55;;;;;;;39.42;20.75;;;6.40;99.90;;;;;;5033239;28;20069;-83
2023/10/18 07:30:29;;;;;;;38.17;22.23;;;6.50;99.90;;;;;;5032986;28;20092;-83
2023/10/18 07:32:57;;;;;;;36.53;21.08;;;6.50;99.90;;;;;;5033094;28;20389;-84
2023/10/18 07:35:26;;;;;;;38.17;20.27;;;6.60;99.90;;;;;;5033373;28;20045;-82
2023/10/18 07:37:55;;;;;;;33.03;20.27;;;6.60;99.90;;;;;;5033048;28;20091;-83
2023/10/18 07:40:21;;;;;;;41.08;21.83;;;6.70;99.90;;;;;;5033234;28;20053;-83
2023/10/18 07:42:51;;;;;;;41.47;20.75;;;6.80;99.90;;;;;;5034118;28;20111;-84
2023/10/18 07:45:18;;;;;;;39.92;19.80;;;6.80;99.90;;;;;;5034113;28;20049;-84
2023/10/18 07:47:43;;;;;;;36.13;19.95;;;6.90;99.90;;;;;;5032643;28;20052;-82
2023/10/18 07:52:54;;;;;;;38.22;21.65;;;7.00;99.90;;;;;;5032719;28;20045;-83
2023/10/18 07:55:21;;;;;;;34.90;18.50;;;7.10;99.90;;;;;;5033946;28;20099;-83
2023/10/18 07:57:48;;;;;;;34.90;19.63;;;7.10;99.90;;;;;;5032950;28;20140;-82
2023/10/18 08:00:26;;;;;;;36.97;19.60;;;7.20;99.90;;;;;;5032598;28;20060;-83
2023/10/18 08:02:52;;;;;;;35.75;20.33;;;7.30;99.90;;;;;;5033105;28;20049;-83
2023/10/18 08:05:23;;;;;;;36.35;19.98;;;7.40;99.90;;;;;;5033596;28;20049;-83
2023/10/18 08:07:51;;;;;;;36.80;19.80;;;7.50;99.90;;;;;;5032271;28;20049;-83
2023/10/18 08:10:20;;;;;;;34.15;19.70;;;7.50;99.90;;;;;;5033661;28;20053;-83
2023/10/18 08:13:10;;;;;;;35.28;19.48;;;7.60;99.90;;;;;;5032388;28;20049;-84
2023/10/18 08:15:37;;;;;;;30.70;17.70;;;7.70;99.90;;;;;;5033857;28;20037;-83
2023/10/18 08:18:17;;;;;;;31.08;18.20;;;7.80;99.90;;;;;;5032481;28;20370;-82
2023/10/18 08:28:46;;;;;;;29.85;16.17;;;8.00;99.90;;;;;;5015491;28;20111;-82
2023/10/18 08:31:15;;;;;;;32.80;17.83;;;8.00;99.90;;;;;;5033635;28;20041;-83
2023/10/18 08:33:41;;;;;;;30.75;18.67;;;8.10;99.90;;;;;;5033191;28;20531;-83
2023/10/18 08:36:13;;;;;;;29.40;17.05;;;8.00;99.90;;;;;;5033094;28;20436;-83
2023/10/18 08:38:41;;;;;;;32.35;17.05;;;8.10;99.90;;;;;;5032591;28;20053;-86
2023/10/18 08:41:14;;;;;;;28.90;16.70;;;8.20;99.90;;;;;;5032006;28;20073;-84
2023/10/18 08:43:53;;;;;;;27.08;16.33;;;8.20;99.90;;;;;;5032298;28;20056;-83
2023/10/18 08:46:24;;;;;;;30.20;16.73;;;8.30;99.90;;;;;;5032271;28;20382;-83
2023/10/18 08:48:53;;;;;;;28.08;15.82;;;8.30;99.90;;;;;;5031985;28;20053;-83
2023/10/18 08:51:23;;;;;;;28.98;16.35;;;8.30;99.90;;;;;;5032107;28;20502;-83
2023/10/18 08:53:51;;;;;;;27.98;17.02;;;8.40;99.90;;;;;;5031760;28;20553;-83
2023/10/18 08:56:24;;;;;;;28.73;16.05;;;8.50;99.90;;;;;;5033210;28;20049;-84
2023/10/18 08:58:53;;;;;;;30.00;17.60;;;8.50;99.90;;;;;;5033296;28;20049;-86
2023/10/18 09:01:21;;;;;;;25.45;15.50;;;8.50;99.90;;;;;;5031914;28;20061;-83
2023/10/18 09:03:47;;;;;;;28.20;16.20;;;8.60;99.90;;;;;;5031981;28;20502;-83
2023/10/18 09:06:22;;;;;;;26.85;15.40;;;8.60;99.90;;;;;;5031788;28;20089;-83
2023/10/18 09:09:05;;;;;;;27.60;15.10;;;8.70;99.90;;;;;;5033495;28;20050;-83
2023/10/18 09:11:31;;;;;;;22.92;14.40;;;8.70;99.90;;;;;;5032202;28;20085;-83
2023/10/18 09:14:15;;;;;;;23.02;14.07;;;8.80;99.90;;;;;;5032199;28;20098;-84
2023/10/18 09:16:43;;;;;;;19.13;12.98;;;8.90;99.90;;;;;;5032011;28;20378;-83
2023/10/18 09:19:10;;;;;;;24.02;13.30;;;8.90;99.90;;;;;;5031987;28;20050;-81
2023/10/18 09:21:37;;;;;;;19.70;12.23;;;8.90;99.90;;;;;;5031836;28;20045;-83
2023/10/18 09:24:06;;;;;;;21.98;12.27;;;9.00;99.90;;;;;;5031565;28;20116;-82
2023/10/18 09:26:41;;;;;;;21.42;12.30;;;9.10;99.90;;;;;;5031934;28;20045;-81
2023/10/18 09:29:10;;;;;;;22.52;12.65;;;9.10;99.90;;;;;;5031854;28;20060;-82
2023/10/18 09:32:01;;;;;;;21.13;12.27;;;9.20;99.90;;;;;;5031543;28;20057;-82
2023/10/18 09:34:33;;;;;;;23.42;12.60;;;9.30;99.90;;;;;;5033192;28;20041;-83
2023/10/18 09:36:59;;;;;;;20.85;12.20;;;9.30;99.90;;;;;;5032018;28;20056;-83
2023/10/18 09:39:37;;;;;;;20.85;12.50;;;9.40;99.90;;;;;;5031661;28;20045;-83
2023/10/18 09:42:12;;;;;;;19.45;11.43;;;9.40;99.90;;;;;;5034820;28;20045;-83
2023/10/18 09:44:41;;;;;;;22.33;12.40;;;9.40;99.90;;;;;;5035224;28;20125;-83
2023/10/18 09:47:08;;;;;;;22.52;13.32;;;9.40;99.90;;;;;;5035269;28;20049;-82
2023/10/18 09:49:34;;;;;;;20.55;12.38;;;9.50;99.90;;;;;;5034941;28;20079;-83
2023/10/18 09:52:03;;;;;;;20.98;13.77;;;9.50;99.90;;;;;;5035178;28;20084;-82
2023/10/18 09:54:34;;;;;;;22.35;14.27;;;9.60;99.90;;;;;;5034896;28;20102;-82
2023/10/18 09:57:02;;;;;;;21.00;12.68;;;9.60;99.90;;;;;;5035166;28;20491;-85
2023/10/18 09:59:37;;;;;;;21.20;13.10;;;9.70;99.90;;;;;;5034972;28;20405;-82
2023/10/18 10:02:14;;;;;;;23.70;12.15;;;9.60;99.90;;;;;;5034998;28;20191;-82
2023/10/18 10:04:43;;;;;;;17.35;10.88;;;9.70;99.90;;;;;;5034985;28;20142;-82
2023/10/18 10:07:36;;;;;;;23.45;12.07;;;9.80;99.90;;;;;;5034730;28;20104;-84
2023/10/18 10:10:09;;;;;;;21.40;13.05;;;9.90;99.90;;;;;;5034778;28;20559;-83
2023/10/18 10:12:41;;;;;;;18.63;12.23;;;9.90;99.90;;;;;;5035050;28;20520;-82
2023/10/18 10:15:13;;;;;;;18.55;10.35;;;9.90;99.90;;;;;;5034839;28;20497;-85
2023/10/18 10:17:42;;;;;;;19.55;12.75;;;10.00;99.90;;;;;;5034890;28;20036;-82
2023/10/18 10:20:14;;;;;;;19.05;13.18;;;10.00;99.90;;;;;;5034534;28;20484;-83
2023/10/18 10:22:44;;;;;;;19.35;12.23;;;10.10;99.90;;;;;;5034722;28;20488;-82
2023/10/18 10:25:19;;;;;;;17.55;11.45;;;10.10;99.90;;;;;;5034365;28;20128;-82
2023/10/18 10:27:59;;;;;;;16.73;11.38;;;10.20;99.90;;;;;;5034465;28;20049;-81
2023/10/18 10:30:35;;;;;;;19.67;12.55;;;10.20;99.90;;;;;;5034348;28;20421;-82
2023/10/18 10:33:11;;;;;;;21.25;12.27;;;10.30;99.90;;;;;;5034281;28;20417;-84
2023/10/18 10:35:44;;;;;;;21.45;13.05;;;10.30;99.90;;;;;;5034295;28;20048;-83
2023/10/18 10:38:13;;;;;;;19.83;11.57;;;10.40;99.90;;;;;;5034259;28;20045;-82
2023/10/18 10:40:43;;;;;;;18.90;12.85;;;10.40;99.90;;;;;;5034345;28;20140;-82
2023/10/18 10:43:10;;;;;;;18.58;11.57;;;10.30;99.90;;;;;;5034536;28;20045;-83
2023/10/18 10:45:43;;;;;;;18.73;11.20;;;10.30;99.90;;;;;;5033751;28;20050;-83
2023/10/18 10:48:18;;;;;;;18.85;11.02;;;10.50;99.90;;;;;;5034193;28;20057;-83
2023/10/18 10:50:51;;;;;;;15.70;10.05;;;10.50;99.90;;;;;;5034229;28;20107;-82
2023/10/18 10:53:31;;;;;;;15.90;9.73;;;10.60;99.90;;;;;;5033304;28;20063;-82
2023/10/18 10:55:57;;;;;;;16.38;10.75;;;10.60;99.90;;;;;;5033845;28;20171;-83
2023/10/18 10:58:29;;;;;;;17.25;10.02;;;10.60;99.90;;;;;;5033684;28;20132;-83
2023/10/18 11:01:12;;;;;;;16.35;10.55;;;10.70;99.90;;;;;;5033981;28;20115;-84
2023/10/18 11:03:53;;;;;;;;;;;10.80;99.90;;;;;;5034401;28;20092;-82
2023/10/18 11:06:24;;;;;;;17.25;10.10;;;10.80;99.90;;;;;;5033803;28;19925;-81
2023/10/18 11:08:53;;;;;;;15.88;9.80;;;10.80;99.90;;;;;;5033641;28;20049;-82
2023/10/18 11:11:21;;;;;;;19.77;10.57;;;10.90;99.90;;;;;;5033784;28;20103;-82
2023/10/18 11:13:48;;;;;;;17.70;10.80;;;10.80;99.90;;;;;;5033446;28;20038;-83
2023/10/18 11:16:15;;;;;;;44.42;13.95;;;10.90;99.90;;;;;;5034067;28;20045;-82
2023/10/18 11:18:42;;;;;;;18.25;10.68;;;10.90;99.90;;;;;;5033464;28;20091;-83
2023/10/18 11:24:10;;;;;;;16.45;10.43;;;11.00;99.90;;;;;;4981223;28;20450;-83
2023/10/18 11:26:40;;;;;;;17.02;9.98;;;10.90;99.90;;;;;;4993961;28;20050;-82
2023/10/18 11:29:07;;;;;;;16.88;9.40;;;11.00;99.90;;;;;;4994441;28;20061;-82
2023/10/18 11:31:42;;;;;;;15.32;9.88;;;11.00;99.90;;;;;;4993818;28;20045;-84
2023/10/18 11:34:08;;;;;;;18.88;10.32;;;11.00;99.90;;;;;;4993659;28;20046;-84
2023/10/18 11:36:35;;;;;;;16.40;10.00;;;11.00;99.90;;;;;;4993719;28;20046;-82
2023/10/18 11:39:07;;;;;;;14.82;9.38;;;11.00;99.90;;;;;;4993592;28;20046;-82
2023/10/18 11:41:37;;;;;;;18.90;10.90;;;11.00;99.90;;;;;;4993937;28;20053;-82
2023/10/18 11:44:07;;;;;;;17.08;10.10;;;11.00;99.90;;;;;;4993691;28;20050;-84
2023/10/18 11:47:11;;;;;;;16.30;9.55;;;11.10;99.90;;;;;;4993635;28;20054;-83
2023/10/18 11:49:43;;;;;;;14.68;9.73;;;11.20;99.90;;;;;;4985234;28;20097;-82
2023/10/18 11:52:16;;;;;;;17.83;10.05;;;11.20;99.90;;;;;;4993442;28;20049;-84
2023/10/18 11:54:44;;;;;;;17.70;10.35;;;11.10;99.90;;;;;;4993612;28;20069;-82
2023/10/18 11:57:29;;;;;;;16.77;10.30;;;11.00;99.90;;;;;;4993368;28;20042;-81
2023/10/18 11:59:57;;;;;;;16.85;10.07;;;11.00;99.90;;;;;;4993633;28;20054;-81
2023/10/18 12:02:28;;;;;;;15.65;9.82;;;11.10;99.90;;;;;;4994868;28;20046;-82
2023/10/18 12:04:57;;;;;;;17.00;9.95;;;11.10;99.90;;;;;;4992891;28;20461;-82
2023/10/18 12:07:24;;;;;;;20.77;10.85;;;11.00;99.90;;;;;;4993214;28;20058;-82
2023/10/18 12:09:54;;;;;;;16.27;10.60;;;11.00;99.90;;;;;;4993152;28;20214;-81
2023/10/18 12:12:20;;;;;;;16.10;10.68;;;11.00;99.90;;;;;;4994278;28;20038;-83
2023/10/18 12:14:49;;;;;;;16.08;10.15;;;11.00;99.90;;;;;;4993238;28;20401;-82
2023/10/18 12:17:15;;;;;;;14.43;9.75;;;11.20;99.90;;;;;;4993326;28;20101;-83
2023/10/18 12:19:42;;;;;;;18.75;10.35;;;11.20;99.90;;;;;;4993425;28;20042;-82
2023/10/18 12:22:15;;;;;;;18.08;10.82;;;11.20;99.90;;;;;;4984384;28;20062;-81
2023/10/18 12:24:41;;;;;;;16.63;9.63;;;11.30;99.90;;;;;;4976890;28;20133;-82
2023/10/18 12:29:52;;;;;;;16.55;10.45;;;11.30;99.90;;;;;;4976672;28;20065;-84
2023/10/18 12:32:27;;;;;;;18.95;11.23;;;11.40;99.90;;;;;;4976580;28;20046;-82
2023/10/18 12:35:06;;;;;;;18.15;9.75;;;11.30;99.90;;;;;;4976375;28;20047;-82
2023/10/18 12:37:51;;;;;;;15.68;10.48;;;11.20;99.90;;;;;;5069031;23;20058;-81
2023/10/18 12:43:00;;;;;;;17.55;9.00;;;11.40;99.90;;;;;;5012044;28;20103;-82
2023/10/18 12:45:26;;;;;;;;;;;11.40;99.90;;;;;;5012722;28;20038;-84
2023/10/18 12:47:55;;;;;;;15.90;10.05;;;11.50;99.90;;;;;;5012671;28;19921;-83
2023/10/18 12:50:27;;;;;;;15.88;9.57;;;11.50;99.90;;;;;;5012586;28;20068;-83
2023/10/18 12:52:56;;;;;;;16.30;11.20;;;11.50;99.90;;;;;;5012369;28;20084;-81
2023/10/18 12:55:43;;;;;;;14.88;9.75;;;11.50;99.90;;;;;;5011414;28;20103;-83
2023/10/18 12:58:28;;;;;;;16.75;9.48;;;11.40;99.90;;;;;;5013352;28;20108;-83
2023/10/18 13:01:15;;;;;;;16.20;10.35;;;11.50;99.90;;;;;;5012190;28;20095;-83
2023/10/18 13:03:59;;;;;;;17.83;10.20;;;11.40;99.90;;;;;;5011597;28;20061;-81
2023/10/18 13:06:43;;;;;;;16.20;10.38;;;11.40;99.90;;;;;;5012086;28;20049;-83
2023/10/18 13:09:19;;;;;;;15.15;9.25;;;11.30;99.90;;;;;;5012466;28;20041;-82
2023/10/18 13:14:31;;;;;;;14.13;9.30;;;11.40;99.90;;;;;;5011931;28;20050;-84
2023/10/18 13:17:05;;;;;;;17.92;10.35;;;11.40;99.90;;;;;;5015223;28;20410;-81
2023/10/18 13:23:20;;;;;;;17.75;9.93;;;11.30;99.90;;;;;;5017099;28;20036;-82
2023/10/18 13:25:54;;;;;;;16.85;9.55;;;11.40;99.90;;;;;;5015534;28;20576;-82
2023/10/18 13:31:32;;;;;;;16.65;9.82;;;11.40;99.90;;;;;;5015701;28;20398;-82
2023/10/18 13:34:06;;;;;;;20.42;9.95;;;11.20;99.90;;;;;;5015635;28;20045;-83
2023/10/18 13:37:10;;;;;;;15.23;9.18;;;11.30;99.90;;;;;;5016977;28;20096;-83
2023/10/18 13:39:55;;;;;;;16.27;9.48;;;11.30;99.90;;;;;;5018719;28;20052;-82
2023/10/18 13:42:21;;;;;;;;;;;11.20;99.90;;;;;;5019217;28;20485;-83
2023/10/18 13:44:56;;;;;;;18.85;10.27;;;11.20;99.90;;;;;;5018442;28;19974;-83
2023/10/18 13:47:26;;;;;;;16.30;9.23;;;11.30;99.90;;;;;;5018942;28;20396;-83
2023/10/18 13:50:17;;;;;;;17.40;8.93;;;11.30;99.90;;;;;;5029872;28;20104;-82